sensor_id;sensor_type;location;lat;lon;timestamp;pressure;altitude;pressure_sealevel;temperature;humidity
68988;BME280;56038;46.080;11.116;2023-05-10T00:02:31;98982.78;;;15.00;79.33
68988;BME280;56038;46.080;11.116;2023-05-10T00:07:32;98983.97;;;15.08;79.59
68988;BME280;56038;46.080;11.116;2023-05-10T00:12:34;98975.97;;;15.10;80.31
68988;BME280;56038;46.080;11.116;2023-05-10T00:17:37;98967.53;;;15.05;80.20
68988;BME280;56038;46.080;11.116;2023-05-10T00:22:39;98970.91;;;15.07;80.47
68988;BME280;56038;46.080;11.116;2023-05-10T00:27:40;98960.28;;;15.08;80.07
68988;BME280;56038;46.080;11.116;2023-05-10T00:32:43;98951.75;;;15.05;80.54
68988;BME280;56038;46.080;11.116;2023-05-10T00:37:45;98950.53;;;14.96;80.35
68988;BME280;56038;46.080;11.116;2023-05-10T00:42:47;98944.69;;;14.78;80.57
68988;BME280;56038;46.080;11.116;2023-05-10T00:47:50;98941.38;;;14.89;79.82
68988;BME280;56038;46.080;11.116;2023-05-10T00:52:52;98935.72;;;14.95;80.47
68988;BME280;56038;46.080;11.116;2023-05-10T00:57:54;98932.88;;;14.98;80.84
68988;BME280;56038;46.080;11.116;2023-05-10T01:02:57;98933.69;;;14.86;81.42
68988;BME280;56038;46.080;11.116;2023-05-10T01:07:59;98945.19;;;14.71;83.24
68988;BME280;56038;46.080;11.116;2023-05-10T01:13:01;98940.59;;;14.60;84.21
68988;BME280;56038;46.080;11.116;2023-05-10T01:18:05;98936.31;;;14.45;85.65
68988;BME280;56038;46.080;11.116;2023-05-10T01:23:24;98939.97;;;14.56;85.15
68988;BME280;56038;46.080;11.116;2023-05-10T01:34:12;98932.09;;;14.56;84.77
68988;BME280;56038;46.080;11.116;2023-05-10T01:39:23;98931.25;;;14.56;84.57
68988;BME280;56038;46.080;11.116;2023-05-10T01:44:32;98930.66;;;14.51;85.46
68988;BME280;56038;46.080;11.116;2023-05-10T01:49:41;98931.59;;;14.50;85.51
68988;BME280;56038;46.080;11.116;2023-05-10T01:54:50;98937.06;;;14.47;85.85
68988;BME280;56038;46.080;11.116;2023-05-10T01:59:53;98930.50;;;14.39;86.33
68988;BME280;56038;46.080;11.116;2023-05-10T02:04:58;98928.59;;;14.42;86.36
68988;BME280;56038;46.080;11.116;2023-05-10T02:10:01;98931.34;;;14.40;86.69
68988;BME280;56038;46.080;11.116;2023-05-10T02:15:05;98934.06;;;14.38;87.11
68988;BME280;56038;46.080;11.116;2023-05-10T02:20:11;98933.13;;;14.39;87.16
68988;BME280;56038;46.080;11.116;2023-05-10T02:25:13;98932.94;;;14.28;91.37
68988;BME280;56038;46.080;11.116;2023-05-10T02:30:16;98929.47;;;14.28;88.29
68988;BME280;56038;46.080;11.116;2023-05-10T02:35:22;98934.91;;;14.25;88.67
68988;BME280;56038;46.080;11.116;2023-05-10T02:40:25;98929.94;;;14.20;88.32
68988;BME280;56038;46.080;11.116;2023-05-10T02:45:30;98924.22;;;14.14;87.18
68988;BME280;56038;46.080;11.116;2023-05-10T02:50:34;98922.81;;;14.08;87.09
68988;BME280;56038;46.080;11.116;2023-05-10T02:55:40;98925.59;;;13.62;88.65
68988;BME280;56038;46.080;11.116;2023-05-10T03:00:43;98929.34;;;13.58;88.99
68988;BME280;56038;46.080;11.116;2023-05-10T03:05:58;98918.94;;;13.71;88.14
68988;BME280;56038;46.080;11.116;2023-05-10T03:11:21;98926.38;;;13.78;89.55
68988;BME280;56038;46.080;11.116;2023-05-10T03:16:30;98923.84;;;13.77;89.24
68988;BME280;56038;46.080;11.116;2023-05-10T03:21:37;98922.16;;;13.76;90.12
68988;BME280;56038;46.080;11.116;2023-05-10T03:26:43;98918.94;;;13.71;90.20
68988;BME280;56038;46.080;11.116;2023-05-10T03:31:45;98922.59;;;13.68;89.80
68988;BME280;56038;46.080;11.116;2023-05-10T03:36:48;98922.59;;;13.68;89.16
68988;BME280;56038;46.080;11.116;2023-05-10T03:41:50;98920.34;;;13.62;90.09
68988;BME280;56038;46.080;11.116;2023-05-10T03:46:52;98924.25;;;13.55;90.79
68988;BME280;56038;46.080;11.116;2023-05-10T03:51:55;98925.94;;;13.56;90.79
68988;BME280;56038;46.080;11.116;2023-05-10T03:56:56;98923.50;;;13.53;91.35
68988;BME280;56038;46.080;11.116;2023-05-10T04:01:58;98919.19;;;13.52;91.43
68988;BME280;56038;46.080;11.116;2023-05-10T04:07:01;98924.00;;;13.60;90.97
68988;BME280;56038;46.080;11.116;2023-05-10T04:12:03;98926.72;;;13.58;90.80
68988;BME280;56038;46.080;11.116;2023-05-10T04:17:05;98920.88;;;13.53;91.22
68988;BME280;56038;46.080;11.116;2023-05-10T04:22:08;98924.16;;;13.42;91.49
68988;BME280;56038;46.080;11.116;2023-05-10T04:27:10;98920.97;;;13.52;91.30
68988;BME280;56038;46.080;11.116;2023-05-10T04:32:12;98925.78;;;13.59;90.07
68988;BME280;56038;46.080;11.116;2023-05-10T04:37:15;98931.38;;;13.53;90.71
68988;BME280;56038;46.080;11.116;2023-05-10T04:42:17;98930.72;;;13.49;91.38
68988;BME280;56038;46.080;11.116;2023-05-10T04:47:18;98933.03;;;13.40;91.72
68988;BME280;56038;46.080;11.116;2023-05-10T04:52:21;98932.41;;;13.51;91.40
68988;BME280;56038;46.080;11.116;2023-05-10T04:57:23;98925.09;;;13.56;91.07
68988;BME280;56038;46.080;11.116;2023-05-10T05:02:25;98939.66;;;13.61;90.47
68988;BME280;56038;46.080;11.116;2023-05-10T05:07:28;98940.59;;;13.60;90.86
68988;BME280;56038;46.080;11.116;2023-05-10T05:12:30;98939.66;;;13.61;90.48
68988;BME280;56038;46.080;11.116;2023-05-10T05:17:32;98945.38;;;13.68;90.47
68988;BME280;56038;46.080;11.116;2023-05-10T05:22:35;98945.09;;;13.72;90.84
68988;BME280;56038;46.080;11.116;2023-05-10T05:27:37;98945.88;;;13.74;91.10
68988;BME280;56038;46.080;11.116;2023-05-10T05:32:39;98945.03;;;13.74;91.48
68988;BME280;56038;46.080;11.116;2023-05-10T05:37:42;98943.66;;;13.53;92.51
68988;BME280;56038;46.080;11.116;2023-05-10T05:42:43;98951.59;;;13.37;93.49
68988;BME280;56038;46.080;11.116;2023-05-10T05:47:45;98951.94;;;13.31;94.19
68988;BME280;56038;46.080;11.116;2023-05-10T05:52:48;98956.63;;;13.26;94.34
68988;BME280;56038;46.080;11.116;2023-05-10T05:57:50;98952.56;;;13.20;95.03
68988;BME280;56038;46.080;11.116;2023-05-10T06:02:52;98954.06;;;13.24;95.16
68988;BME280;56038;46.080;11.116;2023-05-10T06:07:55;98961.91;;;13.40;94.51
68988;BME280;56038;46.080;11.116;2023-05-10T06:12:56;98962.03;;;13.53;93.85
68988;BME280;56038;46.080;11.116;2023-05-10T06:17:58;98961.59;;;13.60;94.04
68988;BME280;56038;46.080;11.116;2023-05-10T06:23:01;98963.09;;;13.64;93.85
68988;BME280;56038;46.080;11.116;2023-05-10T06:28:03;98967.13;;;13.70;93.34
68988;BME280;56038;46.080;11.116;2023-05-10T06:33:04;98967.41;;;13.65;93.98
68988;BME280;56038;46.080;11.116;2023-05-10T06:38:07;98971.63;;;13.68;93.43
68988;BME280;56038;46.080;11.116;2023-05-10T06:43:09;98979.69;;;13.65;93.77
68988;BME280;56038;46.080;11.116;2023-05-10T06:48:11;98986.41;;;13.55;94.22
68988;BME280;56038;46.080;11.116;2023-05-10T06:53:14;98989.66;;;13.44;93.62
68988;BME280;56038;46.080;11.116;2023-05-10T06:58:15;98984.94;;;13.35;93.61
68988;BME280;56038;46.080;11.116;2023-05-10T07:03:17;98988.00;;;13.27;94.05
68988;BME280;56038;46.080;11.116;2023-05-10T07:08:20;98987.00;;;13.30;94.38
68988;BME280;56038;46.080;11.116;2023-05-10T07:13:22;98985.47;;;13.26;94.26
68988;BME280;56038;46.080;11.116;2023-05-10T07:18:23;98992.41;;;13.27;94.64
68988;BME280;56038;46.080;11.116;2023-05-10T07:23:27;98987.47;;;13.36;94.04
68988;BME280;56038;46.080;11.116;2023-05-10T07:28:28;98991.88;;;13.66;93.41
68988;BME280;56038;46.080;11.116;2023-05-10T07:33:30;98999.44;;;13.56;93.46
68988;BME280;56038;46.080;11.116;2023-05-10T07:38:33;98997.13;;;13.36;93.57
68988;BME280;56038;46.080;11.116;2023-05-10T07:43:35;98990.97;;;13.21;94.25
68988;BME280;56038;46.080;11.116;2023-05-10T07:48:37;98995.53;;;13.17;94.57
68988;BME280;56038;46.080;11.116;2023-05-10T07:53:40;98995.09;;;13.25;94.65
68988;BME280;56038;46.080;11.116;2023-05-10T07:58:41;98997.81;;;13.24;94.60
68988;BME280;56038;46.080;11.116;2023-05-10T08:03:43;98997.47;;;13.30;94.92
68988;BME280;56038;46.080;11.116;2023-05-10T08:08:47;98988.31;;;13.37;94.69
68988;BME280;56038;46.080;11.116;2023-05-10T08:13:51;98999.66;;;13.37;94.85
68988;BME280;56038;46.080;11.116;2023-05-10T08:18:53;98997.16;;;13.20;95.28
68988;BME280;56038;46.080;11.116;2023-05-10T08:23:56;99002.97;;;13.09;96.08
68988;BME280;56038;46.080;11.116;2023-05-10T08:28:58;99010.81;;;13.09;96.56
68988;BME280;56038;46.080;11.116;2023-05-10T08:34:00;99004.34;;;13.01;96.51
68988;BME280;56038;46.080;11.116;2023-05-10T08:39:03;99011.53;;;12.97;95.84
68988;BME280;56038;46.080;11.116;2023-05-10T08:44:04;99008.56;;;13.03;96.36
68988;BME280;56038;46.080;11.116;2023-05-10T08:49:07;99015.50;;;13.04;95.79
68988;BME280;56038;46.080;11.116;2023-05-10T08:54:10;99023.78;;;13.12;96.10
68988;BME280;56038;46.080;11.116;2023-05-10T08:59:12;99025.72;;;13.25;95.48
68988;BME280;56038;46.080;11.116;2023-05-10T09:04:15;99027.09;;;13.32;95.43
68988;BME280;56038;46.080;11.116;2023-05-10T09:09:19;99024.81;;;13.41;95.06
68988;BME280;56038;46.080;11.116;2023-05-10T09:14:23;99037.56;;;13.47;94.88
68988;BME280;56038;46.080;11.116;2023-05-10T09:19:25;99031.56;;;13.45;95.01
68988;BME280;56038;46.080;11.116;2023-05-10T09:24:29;99028.84;;;13.47;94.38
68988;BME280;56038;46.080;11.116;2023-05-10T09:29:39;99031.19;;;13.52;94.76
68988;BME280;56038;46.080;11.116;2023-05-10T09:34:40;99031.94;;;13.54;94.75
68988;BME280;56038;46.080;11.116;2023-05-10T09:39:43;99038.19;;;13.67;94.07
68988;BME280;56038;46.080;11.116;2023-05-10T09:44:45;99040.53;;;13.71;93.70
68988;BME280;56038;46.080;11.116;2023-05-10T09:49:49;99034.09;;;13.77;93.90
68988;BME280;56038;46.080;11.116;2023-05-10T09:54:53;99030.53;;;13.78;93.79
68988;BME280;56038;46.080;11.116;2023-05-10T09:59:55;99023.97;;;13.85;94.03
68988;BME280;56038;46.080;11.116;2023-05-10T10:05:00;99021.00;;;13.91;93.92
68988;BME280;56038;46.080;11.116;2023-05-10T10:10:05;99031.59;;;14.04;93.51
68988;BME280;56038;46.080;11.116;2023-05-10T10:15:11;99026.00;;;14.10;93.21
68988;BME280;56038;46.080;11.116;2023-05-10T10:20:14;99023.78;;;14.47;95.20
68988;BME280;56038;46.080;11.116;2023-05-10T10:25:18;99015.13;;;14.73;92.34
68988;BME280;56038;46.080;11.116;2023-05-10T10:30:27;99019.66;;;14.57;92.08
68988;BME280;56038;46.080;11.116;2023-05-10T10:35:31;99018.16;;;14.53;92.29
68988;BME280;56038;46.080;11.116;2023-05-10T10:40:35;99005.97;;;14.52;91.14
68988;BME280;56038;46.080;11.116;2023-05-10T10:45:39;99005.00;;;14.38;91.23
68988;BME280;56038;46.080;11.116;2023-05-10T10:50:45;98997.69;;;14.44;90.88
68988;BME280;56038;46.080;11.116;2023-05-10T10:55:48;98992.72;;;14.53;90.24
68988;BME280;56038;46.080;11.116;2023-05-10T11:01:08;98988.13;;;14.57;89.62
68988;BME280;56038;46.080;11.116;2023-05-10T11:06:31;98991.28;;;14.62;89.99
68988;BME280;56038;46.080;11.116;2023-05-10T11:11:35;98982.66;;;14.60;89.51
68988;BME280;56038;46.080;11.116;2023-05-10T11:16:41;98977.78;;;14.68;88.49
68988;BME280;56038;46.080;11.116;2023-05-10T11:21:48;98979.81;;;14.77;88.92
68988;BME280;56038;46.080;11.116;2023-05-10T11:26:51;98963.41;;;14.74;88.22
68988;BME280;56038;46.080;11.116;2023-05-10T11:31:56;98968.69;;;14.59;88.16
68988;BME280;56038;46.080;11.116;2023-05-10T11:36:59;98973.44;;;14.67;88.27
68988;BME280;56038;46.080;11.116;2023-05-10T11:42:02;98971.75;;;14.66;87.63
68988;BME280;56038;46.080;11.116;2023-05-10T11:47:05;98969.81;;;14.55;88.17
68988;BME280;56038;46.080;11.116;2023-05-10T11:52:08;98969.53;;;14.46;88.51
68988;BME280;56038;46.080;11.116;2023-05-10T11:57:12;98983.81;;;14.56;89.17
68988;BME280;56038;46.080;11.116;2023-05-10T12:02:14;98979.19;;;14.59;89.00
68988;BME280;56038;46.080;11.116;2023-05-10T12:07:16;98983.81;;;14.56;89.16
68988;BME280;56038;46.080;11.116;2023-05-10T12:12:19;98983.06;;;14.54;89.80
68988;BME280;56038;46.080;11.116;2023-05-10T12:17:21;98976.28;;;14.50;89.84
68988;BME280;56038;46.080;11.116;2023-05-10T12:22:22;98982.38;;;14.50;92.10
68988;BME280;56038;46.080;11.116;2023-05-10T12:27:31;98975.41;;;14.35;89.94
68988;BME280;56038;46.080;11.116;2023-05-10T12:32:39;98980.31;;;14.27;90.69
68988;BME280;56038;46.080;11.116;2023-05-10T12:37:42;98995.22;;;14.26;91.33
68988;BME280;56038;46.080;11.116;2023-05-10T12:42:45;98985.66;;;14.25;91.26
68988;BME280;56038;46.080;11.116;2023-05-10T12:47:47;98984.44;;;14.17;91.49
68988;BME280;56038;46.080;11.116;2023-05-10T12:52:48;98988.00;;;14.16;91.48
68988;BME280;56038;46.080;11.116;2023-05-10T12:57:51;98984.25;;;14.20;91.57
68988;BME280;56038;46.080;11.116;2023-05-10T13:02:53;98978.34;;;14.16;91.73
68988;BME280;56038;46.080;11.116;2023-05-10T13:07:55;98989.88;;;14.14;92.54
68988;BME280;56038;46.080;11.116;2023-05-10T13:12:58;98992.78;;;14.09;92.20
68988;BME280;56038;46.080;11.116;2023-05-10T13:18:00;98983.78;;;14.13;92.61
68988;BME280;56038;46.080;11.116;2023-05-10T13:23:02;98987.16;;;14.15;92.96
68988;BME280;56038;46.080;11.116;2023-05-10T13:28:05;98991.28;;;14.05;92.91
68988;BME280;56038;46.080;11.116;2023-05-10T13:33:06;98986.59;;;13.96;92.46
68988;BME280;56038;46.080;11.116;2023-05-10T13:38:08;98988.16;;;13.84;92.53
68988;BME280;56038;46.080;11.116;2023-05-10T13:43:11;98986.53;;;13.67;92.83
68988;BME280;56038;46.080;11.116;2023-05-10T13:48:13;98983.16;;;13.65;93.21
68988;BME280;56038;46.080;11.116;2023-05-10T13:53:16;98990.56;;;13.59;93.50
68988;BME280;56038;46.080;11.116;2023-05-10T13:58:20;98981.56;;;13.63;93.10
68988;BME280;56038;46.080;11.116;2023-05-10T14:03:21;98980.94;;;13.73;93.45
68988;BME280;56038;46.080;11.116;2023-05-10T14:08:23;98979.44;;;13.84;92.64
68988;BME280;56038;46.080;11.116;2023-05-10T14:13:28;98987.72;;;13.92;92.31
68988;BME280;56038;46.080;11.116;2023-05-10T14:18:30;98983.13;;;13.95;91.93
68988;BME280;56038;46.080;11.116;2023-05-10T14:23:31;98975.13;;;13.97;91.71
68988;BME280;56038;46.080;11.116;2023-05-10T14:28:34;98980.09;;;14.01;91.69
68988;BME280;56038;46.080;11.116;2023-05-10T14:33:36;98976.94;;;13.96;91.46
68988;BME280;56038;46.080;11.116;2023-05-10T14:38:39;98975.69;;;13.88;91.45
68988;BME280;56038;46.080;11.116;2023-05-10T14:43:42;98980.78;;;13.91;91.42
68988;BME280;56038;46.080;11.116;2023-05-10T14:48:43;98976.75;;;14.56;93.32
68988;BME280;56038;46.080;11.116;2023-05-10T14:53:45;98976.66;;;14.29;90.89
68988;BME280;56038;46.080;11.116;2023-05-10T14:58:49;98971.88;;;14.07;91.80
68988;BME280;56038;46.080;11.116;2023-05-10T15:03:51;98972.53;;;13.97;92.00
68988;BME280;56038;46.080;11.116;2023-05-10T15:08:53;98980.19;;;13.86;92.17
68988;BME280;56038;46.080;11.116;2023-05-10T15:13:56;98975.31;;;13.79;92.78
68988;BME280;56038;46.080;11.116;2023-05-10T15:18:58;98981.19;;;13.69;93.21
68988;BME280;56038;46.080;11.116;2023-05-10T15:23:59;98985.88;;;13.64;92.98
68988;BME280;56038;46.080;11.116;2023-05-10T15:29:02;98995.53;;;13.63;92.82
68988;BME280;56038;46.080;11.116;2023-05-10T15:34:04;98984.88;;;13.81;94.29
68988;BME280;56038;46.080;11.116;2023-05-10T15:39:06;98997.19;;;13.94;91.84
68988;BME280;56038;46.080;11.116;2023-05-10T15:44:09;98990.94;;;13.67;91.74
68988;BME280;56038;46.080;11.116;2023-05-10T15:49:11;98990.69;;;13.41;91.85
68988;BME280;56038;46.080;11.116;2023-05-10T15:54:12;98993.06;;;13.30;92.40
68988;BME280;56038;46.080;11.116;2023-05-10T15:59:15;98997.22;;;13.34;92.75
68988;BME280;56038;46.080;11.116;2023-05-10T16:04:17;98996.94;;;13.39;92.40
68988;BME280;56038;46.080;11.116;2023-05-10T16:09:19;98987.66;;;13.33;91.74
68988;BME280;56038;46.080;11.116;2023-05-10T16:14:22;98990.53;;;13.29;91.51
68988;BME280;56038;46.080;11.116;2023-05-10T16:19:25;98997.81;;;13.24;91.29
68988;BME280;56038;46.080;11.116;2023-05-10T16:24:29;98996.31;;;13.19;91.30
68988;BME280;56038;46.080;11.116;2023-05-10T16:29:33;98996.63;;;13.13;91.77
68988;BME280;56038;46.080;11.116;2023-05-10T16:34:34;98996.63;;;13.13;92.37
68988;BME280;56038;46.080;11.116;2023-05-10T16:39:36;98995.28;;;13.06;92.59
68988;BME280;56038;46.080;11.116;2023-05-10T16:44:40;98995.19;;;13.08;93.67
68988;BME280;56038;46.080;11.116;2023-05-10T16:49:42;98990.53;;;13.13;93.43
68988;BME280;56038;46.080;11.116;2023-05-10T16:54:44;98990.88;;;13.07;93.12
68988;BME280;56038;46.080;11.116;2023-05-10T16:59:47;98999.75;;;13.04;93.19
68988;BME280;56038;46.080;11.116;2023-05-10T17:04:49;99001.72;;;13.01;93.76
68988;BME280;56038;46.080;11.116;2023-05-10T17:09:52;99001.03;;;12.97;94.26
68988;BME280;56038;46.080;11.116;2023-05-10T17:14:55;99004.84;;;12.92;95.04
68988;BME280;56038;46.080;11.116;2023-05-10T17:19:57;99003.22;;;12.89;95.24
68988;BME280;56038;46.080;11.116;2023-05-10T17:24:59;99005.09;;;12.87;95.64
68988;BME280;56038;46.080;11.116;2023-05-10T17:30:03;99003.22;;;12.89;95.77
68988;BME280;56038;46.080;11.116;2023-05-10T17:35:06;99005.94;;;12.87;96.20
68988;BME280;56038;46.080;11.116;2023-05-10T17:40:09;99010.16;;;12.90;96.83
68988;BME280;56038;46.080;11.116;2023-05-10T17:45:13;99016.59;;;13.00;96.27
68988;BME280;56038;46.080;11.116;2023-05-10T17:50:14;99012.28;;;12.99;96.00
68988;BME280;56038;46.080;11.116;2023-05-10T17:55:16;99018.63;;;12.95;96.19
68988;BME280;56038;46.080;11.116;2023-05-10T18:00:20;99018.13;;;12.88;96.64
68988;BME280;56038;46.080;11.116;2023-05-10T18:05:25;99020.25;;;12.82;97.01
68988;BME280;56038;46.080;11.116;2023-05-10T18:10:27;99019.81;;;12.74;97.43
68988;BME280;56038;46.080;11.116;2023-05-10T18:15:30;99020.91;;;12.70;97.54
68988;BME280;56038;46.080;11.116;2023-05-10T18:20:32;99015.47;;;12.57;97.45
68988;BME280;56038;46.080;11.116;2023-05-10T18:25:34;99020.44;;;12.46;98.52
68988;BME280;56038;46.080;11.116;2023-05-10T18:30:37;99027.13;;;12.51;98.22
68988;BME280;56038;46.080;11.116;2023-05-10T18:35:39;99031.03;;;12.60;98.31
68988;BME280;56038;46.080;11.116;2023-05-10T18:40:41;99031.03;;;12.60;98.34
68988;BME280;56038;46.080;11.116;2023-05-10T18:45:44;99029.41;;;12.57;98.17
68988;BME280;56038;46.080;11.116;2023-05-10T18:50:46;99033.66;;;12.60;97.84
68988;BME280;56038;46.080;11.116;2023-05-10T18:55:54;99032.03;;;12.57;98.00
68988;BME280;56038;46.080;11.116;2023-05-10T19:00:58;99040.91;;;12.55;97.90
68988;BME280;56038;46.080;11.116;2023-05-10T19:06:07;99042.69;;;12.54;98.08
68988;BME280;56038;46.080;11.116;2023-05-10T19:11:17;99050.38;;;12.57;98.04
68988;BME280;56038;46.080;11.116;2023-05-10T19:16:22;99047.25;;;12.51;98.62
68988;BME280;56038;46.080;11.116;2023-05-10T19:21:24;99054.34;;;12.49;98.83
68988;BME280;56038;46.080;11.116;2023-05-10T19:26:27;99049.34;;;12.44;99.17
68988;BME280;56038;46.080;11.116;2023-05-10T19:31:30;99050.34;;;12.42;99.59
68988;BME280;56038;46.080;11.116;2023-05-10T19:36:32;99057.34;;;12.41;99.72
68988;BME280;56038;46.080;11.116;2023-05-10T19:41:34;99057.44;;;12.40;99.75
68988;BME280;56038;46.080;11.116;2023-05-10T19:46:37;99057.28;;;12.43;99.34
68988;BME280;56038;46.080;11.116;2023-05-10T19:51:40;99055.59;;;12.42;99.14
68988;BME280;56038;46.080;11.116;2023-05-10T19:56:42;99056.69;;;12.38;99.27
68988;BME280;56038;46.080;11.116;2023-05-10T20:01:48;99054.91;;;12.38;99.41
68988;BME280;56038;46.080;11.116;2023-05-10T20:06:50;99065.63;;;12.34;99.37
68988;BME280;56038;46.080;11.116;2023-05-10T20:11:52;99067.31;;;12.35;99.52
68988;BME280;56038;46.080;11.116;2023-05-10T20:16:57;99068.25;;;12.34;99.17
68988;BME280;56038;46.080;11.116;2023-05-10T20:21:59;99069.41;;;12.28;99.83
68988;BME280;56038;46.080;11.116;2023-05-10T20:27:04;99070.41;;;12.25;100.00
68988;BME280;56038;46.080;11.116;2023-05-10T20:32:08;99066.25;;;12.21;99.95
68988;BME280;56038;46.080;11.116;2023-05-10T20:37:10;99063.09;;;12.15;100.00
68988;BME280;56038;46.080;11.116;2023-05-10T20:42:12;99062.19;;;12.16;100.00
68988;BME280;56038;46.080;11.116;2023-05-10T20:47:18;99067.19;;;12.20;100.00
68988;BME280;56038;46.080;11.116;2023-05-10T20:52:22;99063.97;;;12.15;100.00
68988;BME280;56038;46.080;11.116;2023-05-10T20:57:24;99063.25;;;12.12;100.00
68988;BME280;56038;46.080;11.116;2023-05-10T21:02:27;99056.34;;;12.11;100.00
68988;BME280;56038;46.080;11.116;2023-05-10T21:07:29;99065.28;;;12.07;100.00
68988;BME280;56038;46.080;11.116;2023-05-10T21:12:32;99073.22;;;12.05;100.00
68988;BME280;56038;46.080;11.116;2023-05-10T21:17:35;99056.66;;;12.05;100.00
68988;BME280;56038;46.080;11.116;2023-05-10T21:22:36;99059.53;;;12.00;100.00
68988;BME280;56038;46.080;11.116;2023-05-10T21:27:38;99050.94;;;11.96;100.00
68988;BME280;56038;46.080;11.116;2023-05-10T21:32:41;99047.72;;;11.91;100.00
68988;BME280;56038;46.080;11.116;2023-05-10T21:37:43;99057.28;;;11.92;100.00
68988;BME280;56038;46.080;11.116;2023-05-10T21:42:44;99047.50;;;11.96;100.00
68988;BME280;56038;46.080;11.116;2023-05-10T21:47:49;99052.72;;;11.96;100.00
68988;BME280;56038;46.080;11.116;2023-05-10T21:52:51;99043.94;;;11.97;100.00
68988;BME280;56038;46.080;11.116;2023-05-10T21:57:53;99034.19;;;12.01;100.00
68988;BME280;56038;46.080;11.116;2023-05-10T22:02:56;99038.63;;;11.98;100.00
68988;BME280;56038;46.080;11.116;2023-05-10T22:07:57;99038.72;;;11.97;100.00
68988;BME280;56038;46.080;11.116;2023-05-10T22:12:59;99033.88;;;11.89;100.00
68988;BME280;56038;46.080;11.116;2023-05-10T22:18:02;99036.50;;;11.89;100.00
68988;BME280;56038;46.080;11.116;2023-05-10T22:23:04;99032.94;;;11.90;100.00
68988;BME280;56038;46.080;11.116;2023-05-10T22:28:06;99033.03;;;11.89;100.00
68988;BME280;56038;46.080;11.116;2023-05-10T22:33:09;99032.63;;;11.79;100.00
68988;BME280;56038;46.080;11.116;2023-05-10T22:38:11;99040.31;;;11.82;100.00
68988;BME280;56038;46.080;11.116;2023-05-10T22:43:15;99040.19;;;11.85;100.00
68988;BME280;56038;46.080;11.116;2023-05-10T22:48:18;99045.28;;;11.88;100.00
68988;BME280;56038;46.080;11.116;2023-05-10T22:53:21;99031.25;;;11.89;100.00
68988;BME280;56038;46.080;11.116;2023-05-10T22:58:23;99042.91;;;11.84;100.00
68988;BME280;56038;46.080;11.116;2023-05-10T23:03:26;99044.88;;;11.79;100.00
68988;BME280;56038;46.080;11.116;2023-05-10T23:08:27;99039.66;;;11.79;100.00
68988;BME280;56038;46.080;11.116;2023-05-10T23:13:29;99037.50;;;11.87;100.00
68988;BME280;56038;46.080;11.116;2023-05-10T23:18:32;99036.78;;;11.83;100.00
68988;BME280;56038;46.080;11.116;2023-05-10T23:23:34;99038.94;;;11.75;100.00
68988;BME280;56038;46.080;11.116;2023-05-10T23:28:36;99033.84;;;11.72;100.00
68988;BME280;56038;46.080;11.116;2023-05-10T23:33:39;99026.16;;;11.69;100.00
68988;BME280;56038;46.080;11.116;2023-05-10T23:38:41;99024.91;;;11.76;100.00
68988;BME280;56038;46.080;11.116;2023-05-10T23:43:42;99023.16;;;11.77;100.00
68988;BME280;56038;46.080;11.116;2023-05-10T23:48:45;99024.06;;;11.76;100.00
68988;BME280;56038;46.080;11.116;2023-05-10T23:53:47;99024.00;;;11.77;100.00
68988;BME280;56038;46.080;11.116;2023-05-10T23:58:49;99024.91;;;11.76;100.00
